Time;durP1;ratioP1;P1;durP2;ratioP2;P2;SDS_P1;SDS_P2;PMS_P1;PMS_P2;Temp;Humidity;BMP_temperature;BMP_pressure;BME280_temperature;BME280_humidity;BME280_pressure;Samples;Min_cycle;Max_cycle;Signal;HPM_P1;HPM_P2
2022/05/23 00:02:19;;;;;;;6.57;5.97;;;14.30;99.90;;;;;;5042724;28;20280;-79
2022/05/23 00:04:46;;;;;;;6.90;6.30;;;14.20;99.90;;;;;;5043278;28;20201;-80
2022/05/23 00:07:15;;;;;;;6.60;5.93;;;14.20;99.90;;;;;;5042213;28;20195;-80
2022/05/23 00:09:43;;;;;;;6.40;5.90;;;14.20;99.90;;;;;;5040201;28;20227;-80
2022/05/23 00:12:10;;;;;;;6.63;6.03;;;14.10;99.90;;;;;;5044704;28;20281;-79
2022/05/23 00:14:37;;;;;;;7.27;6.40;;;14.10;99.90;;;;;;5036763;28;20257;-79
2022/05/23 00:17:04;;;;;;;6.73;6.23;;;14.10;99.90;;;;;;5044796;28;20215;-80
2022/05/23 00:19:32;;;;;;;7.47;6.87;;;14.00;99.90;;;;;;5039461;28;20208;-81
2022/05/23 00:21:59;;;;;;;7.43;6.93;;;14.00;99.90;;;;;;5044778;28;20633;-80
2022/05/23 00:24:26;;;;;;;6.70;6.20;;;14.00;99.90;;;;;;5041497;28;20195;-81
2022/05/23 00:26:53;;;;;;;6.30;5.90;;;14.00;99.90;;;;;;5038965;28;20632;-79
2022/05/23 00:29:20;;;;;;;6.60;6.00;;;14.00;99.90;;;;;;5046185;28;20282;-80
2022/05/23 00:37:18;;;;;;;6.20;5.70;;;13.90;99.90;;;;;;5038555;28;20199;-80
2022/05/23 00:39:45;;;;;;;6.40;5.90;;;13.90;99.90;;;;;;5045272;28;20192;-80
2022/05/23 00:45:01;;;;;;;6.30;5.70;;;13.80;99.90;;;;;;5042504;28;20211;-80
2022/05/23 00:47:29;;;;;;;5.37;4.97;;;13.80;99.90;;;;;;5042192;28;20192;-80
2022/05/23 00:49:58;;;;;;;6.20;5.70;;;13.80;99.90;;;;;;5041980;28;20210;-80
2022/05/23 00:52:27;;;;;;;6.03;5.63;;;13.80;99.90;;;;;;5040418;28;20211;-80
2022/05/23 00:54:57;;;;;;;6.17;5.60;;;13.80;99.90;;;;;;5041900;28;20202;-78
2022/05/23 00:57:28;;;;;;;4.13;3.60;;;13.80;99.90;;;;;;5042701;28;20204;-81
2022/05/23 00:59:55;;;;;;;5.17;4.77;;;13.70;99.90;;;;;;5041845;28;20253;-80
2022/05/23 01:02:24;;;;;;;6.00;5.60;;;13.80;99.90;;;;;;5039930;28;20226;-80
2022/05/23 01:04:52;;;;;;;4.70;4.30;;;13.80;99.90;;;;;;5037430;28;20661;-80
2022/05/23 01:07:21;;;;;;;5.97;5.40;;;13.80;99.90;;;;;;5040649;28;20668;-80
2022/05/23 01:09:49;;;;;;;5.90;5.40;;;13.70;99.90;;;;;;5038456;28;20670;-80
2022/05/23 01:12:16;;;;;;;5.63;5.10;;;13.70;99.90;;;;;;5038757;28;20218;-80
2022/05/23 01:14:48;;;;;;;5.80;5.37;;;13.70;99.90;;;;;;5038548;28;20257;-80
2022/05/23 01:17:16;;;;;;;6.00;5.50;;;13.70;99.90;;;;;;5044901;28;20257;-80
2022/05/23 01:19:43;;;;;;;3.97;3.67;;;13.80;99.90;;;;;;5042160;28;20228;-78
2022/05/23 01:22:24;;;;;;;6.23;3.17;;;13.80;99.90;;;;;;5045768;28;20613;-81
2022/05/23 01:25:00;;;;;;;3.33;3.00;;;13.90;99.90;;;;;;5035216;28;20253;-80
2022/05/23 01:27:31;;;;;;;5.30;3.10;;;13.80;99.90;;;;;;5038338;28;20200;-80
2022/05/23 01:30:00;;;;;;;3.67;2.90;;;13.90;99.90;;;;;;5038882;28;20196;-81
2022/05/23 01:32:27;;;;;;;4.30;3.23;;;13.80;99.90;;;;;;5069603;23;20719;-77
2022/05/23 01:34:57;;;;;;;4.63;3.00;;;13.80;99.90;;;;;;5044643;28;20223;-77
2022/05/23 01:37:24;;;;;;;4.60;2.80;;;13.80;99.90;;;;;;5046542;28;20302;-77
2022/05/23 01:40:06;;;;;;;6.50;6.00;;;13.80;99.90;;;;;;5055194;28;20195;-77
2022/05/23 01:42:58;;;;;;;4.80;3.37;;;13.80;99.90;;;;;;5038064;28;20618;-77
2022/05/23 01:45:27;;;;;;;3.27;2.80;;;13.70;99.90;;;;;;5049504;28;20231;-77
2022/05/23 01:47:58;;;;;;;6.80;6.30;;;13.70;99.90;;;;;;5057860;28;20675;-77
2022/05/23 01:50:26;;;;;;;7.10;6.60;;;13.70;99.90;;;;;;5047459;28;20206;-77
2022/05/23 01:53:00;;;;;;;7.17;6.67;;;13.70;99.90;;;;;;5045093;28;20675;-77
2022/05/23 01:55:37;;;;;;;7.40;6.70;;;13.70;99.90;;;;;;5043360;28;20196;-77
2022/05/23 02:01:12;;;;;;;4.27;3.33;;;13.70;99.90;;;;;;5039806;28;20238;-77
2022/05/23 02:01:14;;;;;;;3.53;3.10;;;13.60;99.90;;;;;;5042083;28;20262;-76
2022/05/23 02:03:48;;;;;;;3.63;3.10;;;13.60;99.90;;;;;;5047685;28;20196;-76
2022/05/23 02:06:16;;;;;;;4.00;3.23;;;13.60;99.90;;;;;;5042974;28;20203;-77
2022/05/23 02:08:45;;;;;;;4.83;3.70;;;13.60;99.90;;;;;;5057771;28;20202;-77
2022/05/23 02:11:12;;;;;;;4.87;3.73;;;13.50;99.90;;;;;;5049067;28;20214;-76
2022/05/23 02:13:44;;;;;;;5.47;4.97;;;13.50;99.90;;;;;;5039595;28;20206;-77
2022/05/23 02:16:23;;;;;;;4.30;3.10;;;13.60;99.90;;;;;;5040811;28;20226;-77
2022/05/23 02:18:54;;;;;;;4.17;3.20;;;13.50;99.90;;;;;;5045586;28;20209;-76
2022/05/23 02:21:22;;;;;;;4.37;3.13;;;13.50;99.90;;;;;;5044229;28;20269;-77
2022/05/23 02:23:48;;;;;;;3.03;2.83;;;13.50;99.90;;;;;;5047936;28;20203;-76
2022/05/23 02:26:15;;;;;;;4.57;2.83;;;13.50;99.90;;;;;;5048289;28;20611;-76
2022/05/23 02:29:05;;;;;;;7.13;6.30;;;13.50;99.90;;;;;;5044485;28;20211;-77
2022/05/23 02:31:32;;;;;;;7.03;6.57;;;13.40;99.90;;;;;;5044930;28;21613;-77
2022/05/23 02:34:03;;;;;;;5.87;5.40;;;13.40;99.90;;;;;;5025141;28;20280;-77
2022/05/23 02:36:38;;;;;;;5.50;5.10;;;13.40;99.90;;;;;;5040206;28;20649;-77
2022/05/23 02:39:07;;;;;;;4.33;3.03;;;13.40;99.90;;;;;;5032625;28;20283;-77
2022/05/23 02:41:35;;;;;;;4.27;3.00;;;13.30;99.90;;;;;;5032206;28;20226;-77
2022/05/23 02:44:06;;;;;;;6.93;6.43;;;13.40;99.90;;;;;;5040355;28;20216;-77
2022/05/23 02:46:34;;;;;;;7.03;6.53;;;13.30;99.90;;;;;;5052736;28;20282;-77
2022/05/23 02:49:10;;;;;;;7.57;6.97;;;13.40;99.90;;;;;;5048653;28;20190;-77
2022/05/23 02:51:41;;;;;;;6.60;6.10;;;13.40;99.90;;;;;;5025557;28;20219;-78
2022/05/23 02:54:11;;;;;;;6.97;6.33;;;13.40;99.90;;;;;;5042309;28;20195;-78
2022/05/23 02:56:40;;;;;;;7.40;6.80;;;13.30;99.90;;;;;;5042787;28;20199;-78
2022/05/23 02:59:09;;;;;;;7.43;6.93;;;13.30;99.90;;;;;;5034908;28;20680;-77
2022/05/23 03:03:01;;;;;;;7.47;6.87;;;13.30;99.90;;;;;;5030075;28;20243;-78
2022/05/23 03:04:34;;;;;;;5.00;4.60;;;13.30;99.90;;;;;;5039474;28;20196;-78
2022/05/23 03:07:01;;;;;;;3.63;3.10;;;13.30;99.90;;;;;;5044248;28;20726;-78
2022/05/23 03:09:30;;;;;;;3.70;3.30;;;13.30;99.90;;;;;;5032531;28;20200;-78
2022/05/23 03:11:57;;;;;;;4.57;3.40;;;13.30;99.90;;;;;;5036201;28;20220;-76
2022/05/23 03:14:29;;;;;;;4.83;3.17;;;13.30;99.90;;;;;;5050212;28;20201;-78
2022/05/23 03:17:01;;;;;;;4.07;3.40;;;13.40;99.90;;;;;;5046203;28;20199;-77
2022/05/23 03:19:28;;;;;;;3.63;3.33;;;13.40;99.90;;;;;;5048043;28;20212;-78
2022/05/23 03:27:30;;;;;;;3.30;3.00;;;13.40;99.90;;;;;;5037090;28;20218;-78
2022/05/23 03:30:05;;;;;;;3.97;3.33;;;13.40;99.90;;;;;;5041147;28;20570;-76
2022/05/23 03:32:43;;;;;;;4.83;3.40;;;13.40;99.90;;;;;;5032903;28;20268;-78
2022/05/23 03:35:10;;;;;;;3.40;3.10;;;13.40;99.90;;;;;;5028376;28;20552;-78
2022/05/23 03:37:38;;;;;;;3.00;2.70;;;13.40;99.90;;;;;;5037154;28;20211;-78
2022/05/23 03:40:10;;;;;;;5.03;3.30;;;13.50;99.90;;;;;;5031083;28;20581;-76
2022/05/23 03:42:43;;;;;;;3.57;3.00;;;13.50;99.90;;;;;;5032485;28;20225;-78
2022/05/23 03:45:12;;;;;;;3.27;2.63;;;13.60;99.90;;;;;;5018300;28;20205;-77
2022/05/23 03:47:43;;;;;;;7.53;7.03;;;13.70;99.90;;;;;;5025202;28;20565;-77
2022/05/23 03:50:15;;;;;;;7.57;6.90;;;13.70;99.90;;;;;;5047903;28;20210;-78
2022/05/23 03:52:44;;;;;;;7.53;7.03;;;13.80;99.90;;;;;;5035975;28;20215;-79
2022/05/23 03:55:17;;;;;;;6.93;6.43;;;13.90;99.90;;;;;;5033916;28;20608;-79
2022/05/23 03:57:46;;;;;;;3.87;3.23;;;14.00;99.90;;;;;;5038172;28;20589;-77
2022/05/23 04:00:17;;;;;;;6.50;3.80;;;14.10;99.90;;;;;;5038915;28;20199;-77
2022/05/23 04:02:44;;;;;;;7.33;6.73;;;14.20;99.90;;;;;;5043424;28;20704;-79
2022/05/23 04:05:16;;;;;;;6.53;6.10;;;14.20;99.90;;;;;;5030778;28;20203;-81
2022/05/23 04:07:47;;;;;;;6.60;6.10;;;14.30;99.90;;;;;;5034339;28;20212;-80
2022/05/23 04:10:26;;;;;;;6.20;5.80;;;14.30;99.90;;;;;;5045902;28;20283;-79
2022/05/23 04:12:54;;;;;;;8.10;7.37;;;14.30;99.90;;;;;;5043900;28;20211;-76
2022/05/23 04:15:24;;;;;;;6.93;6.43;;;14.40;99.90;;;;;;5034323;28;20204;-77
2022/05/23 04:17:52;;;;;;;6.87;6.37;;;14.40;99.90;;;;;;5040433;28;20212;-77
2022/05/23 04:20:20;;;;;;;6.27;5.87;;;14.40;99.90;;;;;;5039586;28;20684;-77
2022/05/23 04:23:01;;;;;;;6.70;6.20;;;14.40;99.90;;;;;;5046058;28;20227;-77
2022/05/23 04:25:29;;;;;;;6.93;6.53;;;14.50;99.90;;;;;;5050765;28;20199;-77
2022/05/23 04:27:56;;;;;;;7.17;6.67;;;14.50;99.90;;;;;;5035316;28;20201;-77
2022/05/23 04:30:25;;;;;;;7.53;6.90;;;14.50;99.90;;;;;;5043357;28;20199;-77
2022/05/23 04:35:41;;;;;;;7.07;6.57;;;14.40;99.90;;;;;;5029010;28;20620;-77
2022/05/23 04:38:09;;;;;;;7.60;7.00;;;14.40;99.90;;;;;;5025893;28;20221;-77
2022/05/23 04:40:40;;;;;;;8.23;7.63;;;14.30;99.90;;;;;;5021671;28;20249;-77
2022/05/23 04:43:11;;;;;;;7.70;6.97;;;14.30;99.90;;;;;;5034944;28;20216;-77
2022/05/23 04:45:39;;;;;;;7.87;7.27;;;14.30;99.90;;;;;;5048326;28;20716;-77
2022/05/23 04:51:17;;;;;;;6.87;6.37;;;14.40;99.90;;;;;;5043652;28;20215;-77
2022/05/23 04:53:53;;;;;;;7.30;6.70;;;14.40;99.90;;;;;;5041348;28;20193;-77
2022/05/23 04:56:21;;;;;;;7.80;7.00;;;14.40;99.90;;;;;;5022441;28;20208;-81
2022/05/23 04:58:51;;;;;;;7.70;7.10;;;14.50;99.90;;;;;;5040154;28;20215;-78
2022/05/23 05:01:21;;;;;;;7.50;6.97;;;14.50;99.90;;;;;;5052748;28;20207;-79
2022/05/23 05:03:48;;;;;;;8.40;7.65;;;14.50;99.90;;;;;;5047155;28;21000;-79
2022/05/23 05:06:15;;;;;;;7.43;6.68;;;14.50;99.90;;;;;;5045987;28;20428;-78
2022/05/23 05:08:42;;;;;;;9.07;8.37;;;14.50;99.90;;;;;;5044049;28;20191;-79
2022/05/23 05:11:09;;;;;;;6.87;6.37;;;14.50;99.90;;;;;;5056544;28;20207;-79
2022/05/23 05:13:39;;;;;;;7.77;7.17;;;14.60;99.90;;;;;;5046988;28;20206;-79
2022/05/23 05:16:08;;;;;;;7.07;6.57;;;14.60;99.90;;;;;;5058402;28;20740;-80
2022/05/23 05:18:40;;;;;;;6.83;6.33;;;14.60;99.90;;;;;;5038945;28;20227;-78
2022/05/23 05:21:34;;;;;;;6.33;5.83;;;14.60;99.90;;;;;;5057764;28;20247;-79
2022/05/23 05:24:25;;;;;;;5.90;5.40;;;14.70;99.90;;;;;;5052605;28;20242;-78
2022/05/23 05:27:12;;;;;;;6.10;5.53;;;14.70;99.90;;;;;;5055326;28;20205;-78
2022/05/23 05:29:40;;;;;;;5.50;4.83;;;14.80;99.90;;;;;;5042195;28;20282;-78
2022/05/23 05:32:12;;;;;;;4.63;3.73;;;14.80;99.90;;;;;;5052862;28;20315;-79
2022/05/23 05:34:45;;;;;;;3.77;3.43;;;14.90;99.90;;;;;;5044612;28;20679;-79
2022/05/23 05:37:15;;;;;;;4.80;4.30;;;15.00;99.90;;;;;;5054852;28;20210;-79
2022/05/23 05:39:44;;;;;;;5.93;5.50;;;15.10;99.90;;;;;;5049651;28;20244;-78
2022/05/23 05:42:16;;;;;;;4.00;3.70;;;15.10;99.90;;;;;;5052928;28;20221;-79
2022/05/23 05:44:50;;;;;;;3.60;3.30;;;15.20;99.90;;;;;;5051033;28;20192;-79
2022/05/23 05:47:20;;;;;;;3.50;3.20;;;15.30;99.90;;;;;;5028155;28;20671;-77
2022/05/23 05:49:54;;;;;;;4.90;3.47;;;15.50;99.90;;;;;;5035470;28;20212;-77
2022/05/23 05:52:25;;;;;;;4.13;3.13;;;15.60;99.90;;;;;;5045046;28;20220;-77
2022/05/23 05:54:56;;;;;;;3.80;3.40;;;15.70;99.90;;;;;;5056801;28;20200;-82
2022/05/23 05:57:24;;;;;;;3.20;2.90;;;15.90;99.90;;;;;;5034556;28;20203;-77
2022/05/23 05:59:53;;;;;;;3.20;2.90;;;16.20;99.90;;;;;;5023477;28;20249;-77
2022/05/23 06:02:22;;;;;;;6.10;3.33;;;16.40;99.90;;;;;;5043398;28;20246;-77
2022/05/23 06:04:51;;;;;;;3.10;2.80;;;16.50;99.90;;;;;;5033516;28;20200;-79
2022/05/23 06:12:54;;;;;;;2.93;2.73;;;17.40;99.90;;;;;;5055062;28;20218;-80
2022/05/23 06:15:39;;;;;;;3.10;2.80;;;17.60;99.90;;;;;;5044762;28;20207;-77
2022/05/23 06:18:08;;;;;;;3.27;2.93;;;17.70;99.90;;;;;;5042318;28;20253;-78
2022/05/23 06:20:38;;;;;;;4.60;3.40;;;17.80;99.90;;;;;;5045398;28;20195;-78
2022/05/23 06:23:05;;;;;;;3.67;3.37;;;17.80;99.90;;;;;;5042869;28;20305;-79
2022/05/23 06:25:37;;;;;;;3.40;3.10;;;17.70;99.90;;;;;;5033690;28;20219;-79
2022/05/23 06:28:08;;;;;;;3.93;2.70;;;17.80;99.90;;;;;;5042915;28;20196;-81
2022/05/23 06:30:35;;;;;;;2.80;2.60;;;18.10;99.90;;;;;;5044621;28;20196;-81
2022/05/23 06:33:05;;;;;;;2.73;2.50;;;18.50;99.90;;;;;;5048989;28;20366;-79
2022/05/23 06:35:52;;;;;;;3.10;2.90;;;19.10;99.90;;;;;;5034177;28;20207;-80
2022/05/23 06:38:24;;;;;;;2.60;2.40;;;19.40;99.90;;;;;;5038302;28;20202;-79
2022/05/23 06:41:08;;;;;;;3.20;2.43;;;19.90;99.90;;;;;;5045209;28;20269;-79
2022/05/23 06:44:06;;;;;;;4.33;3.30;;;20.00;99.90;;;;;;5048785;28;20579;-79
2022/05/23 06:46:51;;;;;;;5.03;4.33;;;20.30;99.90;;;;;;5051439;28;20687;-79
2022/05/23 06:49:37;;;;;;;5.03;4.63;;;20.70;99.90;;;;;;5037930;28;20203;-79
2022/05/23 06:52:06;;;;;;;5.40;5.00;;;21.00;99.90;;;;;;5045848;28;20219;-80
2022/05/23 06:54:41;;;;;;;5.07;4.57;;;21.20;99.90;;;;;;5040790;28;20201;-79
2022/05/23 06:57:13;;;;;;;3.67;2.43;;;21.60;99.90;;;;;;5043496;28;20208;-80
2022/05/23 06:59:40;;;;;;;6.07;5.63;;;22.00;99.90;;;;;;5035670;28;20218;-80
2022/05/23 07:02:09;;;;;;;4.77;4.43;;;22.20;99.90;;;;;;5036001;28;20222;-81
2022/05/23 07:14:07;;;;;;;2.63;2.27;;;22.10;99.90;;;;;;5006450;28;20207;-80
2022/05/23 07:16:35;;;;;;;6.57;6.10;;;22.00;99.90;;;;;;5049883;28;20200;-80
2022/05/23 07:19:04;;;;;;;5.63;5.23;;;22.60;99.90;;;;;;5046899;28;20222;-80
2022/05/23 07:21:39;;;;;;;5.07;4.63;;;23.50;99.90;;;;;;5046416;28;20602;-80
2022/05/23 07:24:15;;;;;;;2.70;2.50;;;23.70;99.90;;;;;;5042141;28;20202;-79
2022/05/23 07:27:00;;;;;;;3.53;2.33;;;23.40;99.90;;;;;;5039771;28;20231;-80
2022/05/23 07:29:28;;;;;;;5.73;5.23;;;23.40;99.90;;;;;;5043165;28;20200;-80
2022/05/23 07:31:59;;;;;;;4.60;2.50;;;23.20;99.90;;;;;;5062864;22;20262;-83
2022/05/23 07:34:28;;;;;;;4.60;4.20;;;23.20;99.90;;;;;;5049527;28;20223;-82
2022/05/23 07:36:56;;;;;;;5.93;5.50;;;23.10;99.90;;;;;;5043130;28;20195;-81
2022/05/23 07:39:26;;;;;;;4.78;4.47;;;23.10;99.90;;;;;;5048291;28;20449;-83
2022/05/23 07:42:04;;;;;;;4.97;4.57;;;23.20;99.90;;;;;;5057507;28;20194;-82
2022/05/23 07:44:32;;;;;;;4.37;3.43;;;23.30;99.90;;;;;;5049672;28;20237;-84
2022/05/23 07:47:06;;;;;;;4.43;4.13;;;23.30;99.90;;;;;;5047858;28;20249;-81
2022/05/23 07:49:34;;;;;;;5.97;5.43;;;23.40;99.90;;;;;;5046970;28;20270;-82
2022/05/23 07:52:09;;;;;;;5.05;4.68;;;23.50;99.90;;;;;;5055950;28;20523;-82
2022/05/23 08:00:32;;;;;;;2.93;2.50;;;24.20;99.90;;;;;;5045801;28;20711;-82
2022/05/23 08:03:09;;;;;;;5.33;2.60;;;24.60;99.90;;;;;;5058476;28;20222;-84
2022/05/23 08:05:37;;;;;;;7.00;3.87;;;24.80;99.90;;;;;;5078711;28;20202;-83
2022/05/23 08:08:04;;;;;;;7.13;5.23;;;25.10;99.90;;;;;;5064423;28;20656;-84
2022/05/23 08:10:32;;;;;;;6.23;5.63;;;25.60;99.90;;;;;;5057068;28;20550;-83
2022/05/23 08:13:03;;;;;;;6.10;5.10;;;25.70;99.90;;;;;;5052079;28;20663;-84
2022/05/23 08:15:31;;;;;;;8.07;6.10;;;25.50;99.90;;;;;;5062254;28;20225;-83
2022/05/23 08:18:07;;;;;;;5.97;5.30;;;25.30;99.90;;;;;;5059897;28;20206;-84
2022/05/23 08:20:39;;;;;;;5.70;5.20;;;25.20;99.90;;;;;;5047373;28;20225;-84
2022/05/23 08:23:06;;;;;;;4.77;4.37;;;25.30;99.90;;;;;;5054575;28;20229;-84
2022/05/23 08:25:40;;;;;;;5.73;5.10;;;25.60;99.90;;;;;;5069858;28;20191;-84
2022/05/23 08:28:07;;;;;;;5.70;5.10;;;25.80;99.90;;;;;;5059058;28;20198;-84
2022/05/23 08:30:35;;;;;;;6.77;4.90;;;25.80;99.90;;;;;;5055603;28;20237;-84
2022/05/23 08:33:21;;;;;;;5.13;4.63;;;25.90;99.90;;;;;;5061213;28;20237;-84
2022/05/23 08:35:50;;;;;;;3.27;2.90;;;26.30;99.90;;;;;;5056426;28;20199;-84
2022/05/23 08:38:22;;;;;;;3.03;2.63;;;26.60;99.90;;;;;;5059763;28;20200;-82
2022/05/23 08:41:06;;;;;;;3.57;3.00;;;27.10;99.90;;;;;;5056364;28;20218;-81
2022/05/23 08:43:42;;;;;;;4.50;4.20;;;27.00;99.90;;;;;;5052704;28;20309;-81
2022/05/23 08:46:13;;;;;;;5.63;4.60;;;26.50;99.90;;;;;;5051558;28;20226;-82
2022/05/23 08:49:00;;;;;;;4.83;4.40;;;26.40;99.90;;;;;;5065083;28;20203;-80
2022/05/23 08:51:38;;;;;;;5.63;5.00;;;26.30;99.90;;;;;;5060476;28;20224;-81
2022/05/23 08:54:22;;;;;;;5.57;5.07;;;26.30;99.90;;;;;;5070340;28;20248;-81
2022/05/23 08:57:18;;;;;;;5.37;4.87;;;26.50;99.90;;;;;;5056346;28;20206;-82
2022/05/23 08:59:50;;;;;;;6.40;5.70;;;27.00;99.90;;;;;;5062013;28;20352;-82
2022/05/23 09:02:29;;;;;;;6.43;4.30;;;27.70;99.90;;;;;;5055742;28;20663;-82
2022/05/23 09:05:00;;;;;;;6.60;6.00;;;28.00;99.90;;;;;;5052631;28;20204;-82
2022/05/23 09:07:31;;;;;;;4.73;4.33;;;27.80;99.90;;;;;;5047397;28;20287;-82
2022/05/23 09:10:02;;;;;;;4.30;3.87;;;27.30;99.90;;;;;;5053654;28;20271;-82
2022/05/23 09:12:33;;;;;;;8.57;6.27;;;27.10;99.90;;;;;;5055656;28;20757;-81
2022/05/23 09:14:59;;;;;;;9.47;6.60;;;26.90;99.90;;;;;;5053148;28;20295;-81
2022/05/23 09:17:30;;;;;;;6.57;5.97;;;26.80;99.90;;;;;;5057810;28;20206;-82
2022/05/23 09:20:02;;;;;;;5.83;5.23;;;26.50;99.90;;;;;;5063911;28;20735;-83
2022/05/23 09:22:43;;;;;;;6.30;5.70;;;26.10;99.90;;;;;;5058640;28;20222;-82
2022/05/23 09:25:11;;;;;;;6.50;5.33;;;25.70;99.90;;;;;;5057626;28;20214;-79
2022/05/23 09:27:44;;;;;;;6.83;6.23;;;25.50;99.90;;;;;;5059852;28;20203;-80
2022/05/23 09:30:13;;;;;;;7.70;6.90;;;25.40;99.90;;;;;;5053410;28;20205;-78
2022/05/23 09:32:48;;;;;;;6.67;6.10;;;25.20;99.90;;;;;;5047353;28;20233;-78
2022/05/23 09:35:17;;;;;;;5.77;5.30;;;25.20;99.90;;;;;;5046382;28;20243;-80
2022/05/23 09:37:47;;;;;;;7.57;6.97;;;25.10;99.90;;;;;;5055850;28;20684;-80
2022/05/23 09:40:26;;;;;;;7.30;6.67;;;25.10;99.90;;;;;;5056200;28;20228;-81
2022/05/23 09:49:05;;;;;;;6.83;5.90;;;26.30;99.90;;;;;;5055481;28;20199;-79
2022/05/23 09:51:33;;;;;;;7.10;6.40;;;26.10;99.90;;;;;;5052830;28;20289;-79
2022/05/23 09:54:02;;;;;;;7.93;7.17;;;25.90;99.90;;;;;;5055456;28;20224;-82
2022/05/23 09:56:32;;;;;;;8.10;7.50;;;25.70;99.90;;;;;;5053606;28;20218;-82
2022/05/23 09:59:04;;;;;;;7.00;6.30;;;25.60;99.90;;;;;;5057986;28;20664;-82
2022/05/23 10:01:41;;;;;;;9.13;6.07;;;25.20;99.90;;;;;;5053631;28;20195;-81
2022/05/23 10:04:16;;;;;;;7.27;6.67;;;24.90;99.90;;;;;;5056977;28;20317;-82
2022/05/23 10:06:48;;;;;;;6.20;5.60;;;24.50;99.90;;;;;;5058529;28;20277;-82
2022/05/23 10:09:28;;;;;;;6.57;5.97;;;24.30;99.90;;;;;;5061063;28;20206;-82
2022/05/23 10:12:21;;;;;;;8.30;7.60;;;24.10;99.90;;;;;;5057832;28;20303;-81
2022/05/23 10:14:52;;;;;;;7.30;5.57;;;23.90;99.90;;;;;;5052773;28;20199;-79
2022/05/23 10:17:27;;;;;;;7.40;4.83;;;23.70;99.90;;;;;;5049239;28;20199;-79
2022/05/23 10:19:54;;;;;;;4.67;4.27;;;23.60;99.90;;;;;;5053185;28;20226;-79
2022/05/23 10:22:25;;;;;;;6.47;5.97;;;23.40;99.90;;;;;;5060454;28;20657;-79
2022/05/23 10:25:00;;;;;;;6.67;4.83;;;23.30;99.90;;;;;;5067316;28;20691;-78
2022/05/23 10:27:39;;;;;;;8.60;7.70;;;23.20;99.90;;;;;;5057534;28;20205;-79
2022/05/23 10:30:09;;;;;;;8.70;8.00;;;23.10;99.90;;;;;;5056378;28;20199;-79
2022/05/23 10:32:41;;;;;;;7.43;6.90;;;23.00;99.90;;;;;;5057140;28;20230;-79
2022/05/23 10:35:17;;;;;;;8.60;8.00;;;22.90;99.90;;;;;;5050435;28;20207;-79
2022/05/23 10:37:44;;;;;;;7.77;7.27;;;22.90;99.90;;;;;;5060089;28;20195;-79
2022/05/23 10:43:11;;;;;;;6.13;5.63;;;22.70;99.90;;;;;;5059832;28;20212;-78
2022/05/23 10:45:46;;;;;;;7.67;7.13;;;22.70;99.90;;;;;;5069315;28;20195;-78
2022/05/23 10:48:37;;;;;;;8.90;8.20;;;22.60;99.90;;;;;;5063828;28;20665;-79
2022/05/23 10:51:21;;;;;;;8.33;7.70;;;22.50;99.90;;;;;;5056265;28;20210;-79
2022/05/23 10:54:30;;;;;;;9.73;9.03;;;22.40;99.90;;;;;;5049742;28;20260;-78
2022/05/23 10:57:12;;;;;;;8.40;7.80;;;22.30;99.90;;;;;;5055613;28;20203;-78
2022/05/23 10:59:43;;;;;;;8.03;7.43;;;22.20;99.90;;;;;;5052260;28;20282;-79
2022/05/23 11:02:31;;;;;;;7.93;7.33;;;22.10;99.90;;;;;;5060477;28;20219;-79
2022/05/23 11:05:10;;;;;;;8.07;7.47;;;22.00;99.90;;;;;;5055221;28;20205;-78
2022/05/23 11:07:46;;;;;;;8.07;7.57;;;21.90;99.90;;;;;;5058447;28;20285;-79
2022/05/23 11:10:21;;;;;;;8.47;7.70;;;21.80;99.90;;;;;;5052691;28;20198;-79
2022/05/23 11:12:58;;;;;;;8.80;7.90;;;21.60;99.90;;;;;;5049089;28;20218;-79
2022/05/23 11:15:35;;;;;;;8.63;7.77;;;21.50;99.90;;;;;;5057608;28;20202;-79
2022/05/23 11:18:09;;;;;;;10.23;9.17;;;21.30;99.90;;;;;;5058105;28;20198;-79
2022/05/23 11:20:39;;;;;;;12.33;9.93;;;21.00;99.90;;;;;;5044283;28;20256;-77
2022/05/23 11:23:16;;;;;;;12.07;9.33;;;20.70;99.90;;;;;;5053039;28;20224;-79
2022/05/23 11:25:46;;;;;;;13.03;10.30;;;20.50;99.90;;;;;;5054614;28;20190;-80
2022/05/23 11:34:09;;;;;;;10.93;10.00;;;19.60;99.90;;;;;;5055806;28;20247;-79
2022/05/23 11:36:56;;;;;;;10.43;9.43;;;19.40;99.90;;;;;;5060173;28;20200;-80
2022/05/23 11:39:42;;;;;;;10.70;9.80;;;19.30;99.90;;;;;;5059242;28;20669;-80
2022/05/23 11:42:12;;;;;;;10.80;9.70;;;19.20;99.90;;;;;;5058828;28;20578;-81
2022/05/23 11:47:58;;;;;;;11.47;10.33;;;19.10;99.90;;;;;;5069778;28;20200;-79
2022/05/23 11:50:31;;;;;;;10.57;9.60;;;19.00;99.90;;;;;;5047988;28;20207;-79
2022/05/23 11:53:12;;;;;;;10.77;9.77;;;19.00;99.90;;;;;;5054862;28;20220;-80
2022/05/23 11:56:01;;;;;;;11.23;10.07;;;19.00;99.90;;;;;;5062252;28;20196;-77
2022/05/23 11:58:47;;;;;;;11.70;10.50;;;18.80;99.90;;;;;;5061211;28;20204;-77
2022/05/23 12:01:26;;;;;;;11.40;10.17;;;18.70;99.90;;;;;;5061533;28;20226;-78
2022/05/23 12:04:21;;;;;;;10.63;9.47;;;18.50;99.90;;;;;;5070869;28;20757;-78
2022/05/23 12:06:50;;;;;;;10.23;9.20;;;18.20;99.90;;;;;;5057401;28;20199;-79
2022/05/23 12:09:37;;;;;;;7.47;4.67;;;18.10;99.90;;;;;;5071175;28;20722;-79
2022/05/23 12:12:40;;;;;;;11.50;8.63;;;18.00;99.90;;;;;;5050726;28;20298;-78
2022/05/23 12:15:07;;;;;;;9.77;8.73;;;18.00;99.90;;;;;;5072601;28;20203;-81
2022/05/23 12:17:35;;;;;;;9.60;8.67;;;18.10;99.90;;;;;;5035460;28;20204;-81
2022/05/23 12:20:06;;;;;;;10.43;9.53;;;18.20;99.90;;;;;;5060688;28;20407;-81
2022/05/23 12:22:36;;;;;;;9.07;7.63;;;18.20;99.90;;;;;;5052584;28;20245;-81
2022/05/23 12:25:23;;;;;;;4.87;3.13;;;18.40;99.90;;;;;;5049777;28;20753;-81
2022/05/23 12:28:21;;;;;;;5.00;3.33;;;18.50;99.90;;;;;;5066143;28;20191;-81
2022/05/23 12:31:13;;;;;;;5.27;3.50;;;18.90;99.90;;;;;;5056764;28;20214;-81
2022/05/23 12:34:09;;;;;;;4.63;4.23;;;19.20;99.90;;;;;;5054152;28;20712;-82
2022/05/23 12:36:39;;;;;;;7.37;4.97;;;19.50;99.90;;;;;;5066157;28;20215;-82
2022/05/23 12:39:49;;;;;;;9.30;8.40;;;19.90;99.90;;;;;;5057715;28;20200;-82
2022/05/23 12:42:42;;;;;;;6.73;3.27;;;20.30;99.90;;;;;;5052957;28;20232;-82
2022/05/23 12:45:58;;;;;;;7.73;7.17;;;20.70;99.90;;;;;;5063690;28;20332;-82
2022/05/23 12:48:45;;;;;;;5.80;5.00;;;21.00;99.90;;;;;;4981693;28;20203;-82
2022/05/23 12:51:29;;;;;;;7.40;6.77;;;21.50;99.90;;;;;;5049170;28;20652;-82
2022/05/23 12:54:15;;;;;;;7.80;6.67;;;21.90;99.90;;;;;;5062499;28;20210;-82
2022/05/23 12:57:01;;;;;;;8.47;4.97;;;22.20;99.90;;;;;;5067914;28;20289;-82
2022/05/23 12:59:45;;;;;;;8.37;7.37;;;22.40;99.90;;;;;;5058555;28;20202;-82
2022/05/23 13:02:16;;;;;;;6.80;6.10;;;22.80;99.90;;;;;;5060504;28;20294;-82
2022/05/23 13:04:49;;;;;;;7.57;5.73;;;23.20;99.90;;;;;;5061809;28;20224;-83
2022/05/23 13:07:22;;;;;;;7.47;3.27;;;23.40;99.90;;;;;;5062726;28;20284;-82
2022/05/23 13:09:55;;;;;;;5.53;4.00;;;23.60;99.90;;;;;;5057290;28;20579;-83
2022/05/23 13:12:26;;;;;;;6.53;5.27;;;23.80;99.90;;;;;;5069206;28;20241;-82
2022/05/23 13:14:57;;;;;;;5.03;4.27;;;23.80;99.90;;;;;;5061211;28;20280;-82
2022/05/23 13:17:45;;;;;;;5.03;3.37;;;23.70;99.90;;;;;;5050601;28;20184;-81
2022/05/23 13:23:12;;;;;;;4.87;3.00;;;23.60;99.90;;;;;;5063749;28;20226;-84
2022/05/23 13:25:39;;;;;;;4.80;3.57;;;23.50;99.90;;;;;;5053844;28;20187;-82
2022/05/23 13:28:10;;;;;;;4.63;2.40;;;23.50;99.90;;;;;;5056114;28;20245;-83
2022/05/23 13:30:43;;;;;;;3.93;2.30;;;23.30;99.90;;;;;;5057443;28;20194;-82
2022/05/23 13:33:15;;;;;;;6.57;5.97;;;23.20;99.90;;;;;;5052354;28;20226;-80
2022/05/23 13:35:43;;;;;;;3.20;2.00;;;23.20;99.90;;;;;;5050347;28;20207;-84
2022/05/23 13:38:20;;;;;;;5.90;3.43;;;23.10;99.90;;;;;;5061593;28;20203;-84
2022/05/23 13:40:50;;;;;;;5.53;5.03;;;23.10;99.90;;;;;;5047558;28;20241;-83
2022/05/23 13:43:19;;;;;;;7.80;6.10;;;23.10;99.90;;;;;;5062073;28;20218;-80
2022/05/23 13:45:59;;;;;;;6.63;6.03;;;23.10;99.90;;;;;;5052765;28;20230;-81
2022/05/23 13:48:33;;;;;;;5.03;4.57;;;23.10;99.90;;;;;;5066299;28;20203;-82
2022/05/23 13:51:10;;;;;;;3.77;2.50;;;23.00;99.90;;;;;;5052019;28;20568;-79
2022/05/23 13:53:40;;;;;;;6.00;2.87;;;23.00;99.90;;;;;;5056939;28;20219;-77
2022/05/23 13:56:07;;;;;;;4.70;3.97;;;23.00;99.90;;;;;;5069588;28;20198;-79
2022/05/23 13:58:40;;;;;;;6.10;4.80;;;23.00;99.90;;;;;;5039884;28;20213;-79
2022/05/23 14:01:17;;;;;;;4.33;3.93;;;23.00;99.90;;;;;;5056684;28;20219;-80
2022/05/23 14:03:47;;;;;;;4.60;2.47;;;23.00;99.90;;;;;;5051147;28;20863;-78
2022/05/23 14:06:18;;;;;;;4.70;2.23;;;23.00;99.90;;;;;;5049774;28;20206;-80
2022/05/23 14:08:52;;;;;;;3.50;2.30;;;23.00;99.90;;;;;;5049747;28;20285;-81
2022/05/23 14:11:21;;;;;;;4.47;2.40;;;23.00;99.90;;;;;;5063404;28;20288;-81
2022/05/23 14:13:50;;;;;;;4.67;2.53;;;23.00;99.90;;;;;;5060494;28;20277;-80
2022/05/23 14:16:20;;;;;;;3.97;2.60;;;23.00;99.90;;;;;;5063607;28;20198;-80
2022/05/23 14:19:03;;;;;;;5.70;5.20;;;22.90;99.90;;;;;;5047277;28;20210;-80
2022/05/23 14:21:36;;;;;;;6.73;6.07;;;23.00;99.90;;;;;;5057197;28;20212;-81